Time;durP1;ratioP1;P1;durP2;ratioP2;P2;SDS_P1;SDS_P2;PMS_P1;PMS_P2;Temp;Humidity;BMP_temperature;BMP_pressure;BME280_temperature;BME280_humidity;BME280_pressure;Samples;Min_cycle;Max_cycle;Signal;HPM_P1;HPM_P2
2024/03/06 00:00:38;;;;;;;9.43;7.20;;;5.00;99.90;;;;;;4931902;28;20988;-51
2024/03/06 00:03:05;;;;;;;10.10;7.30;;;5.00;99.90;;;;;;4956650;28;20202;-51
2024/03/06 00:05:32;;;;;;;11.97;7.30;;;5.00;99.90;;;;;;4954027;28;20222;-53
2024/03/06 00:08:00;;;;;;;12.80;7.20;;;5.00;99.90;;;;;;4957854;28;20209;-54
2024/03/06 00:10:27;;;;;;;10.67;6.97;;;5.00;99.90;;;;;;4961520;28;20217;-51
2024/03/06 00:12:54;;;;;;;12.67;7.07;;;4.90;99.90;;;;;;4963863;28;20297;-52
2024/03/06 00:15:21;;;;;;;12.10;7.87;;;4.90;99.90;;;;;;4930909;28;20284;-53
2024/03/06 00:17:47;;;;;;;12.90;7.67;;;5.00;99.90;;;;;;4965144;28;20198;-54
2024/03/06 00:20:14;;;;;;;12.33;7.67;;;4.90;99.90;;;;;;4956120;28;20253;-55
2024/03/06 00:22:41;;;;;;;10.57;7.33;;;5.00;99.90;;;;;;4953880;28;20205;-51
2024/03/06 00:25:09;;;;;;;14.23;7.50;;;5.00;99.90;;;;;;4965348;28;20266;-54
2024/03/06 00:27:36;;;;;;;10.67;7.57;;;5.00;99.90;;;;;;4964407;28;20768;-52
2024/03/06 00:30:04;;;;;;;10.17;7.30;;;5.00;99.90;;;;;;4956862;28;20236;-50
2024/03/06 00:32:30;;;;;;;11.13;6.90;;;5.00;99.90;;;;;;4935488;28;20253;-54
2024/03/06 00:34:57;;;;;;;10.60;7.43;;;5.00;99.90;;;;;;4957139;28;20257;-54
2024/03/06 00:37:24;;;;;;;11.87;8.13;;;5.00;99.90;;;;;;4961388;28;20899;-52
2024/03/06 00:39:51;;;;;;;11.00;7.07;;;4.90;99.90;;;;;;4959436;28;20253;-52
2024/03/06 00:42:19;;;;;;;10.10;7.13;;;4.90;99.90;;;;;;4966230;28;20201;-54
2024/03/06 00:44:46;;;;;;;11.43;7.47;;;4.90;99.90;;;;;;4954538;28;20605;-53
2024/03/06 00:47:13;;;;;;;10.70;6.80;;;4.90;99.90;;;;;;4936802;28;20214;-52
2024/03/06 00:49:42;;;;;;;10.17;7.23;;;4.90;99.90;;;;;;4957094;28;20233;-53
2024/03/06 00:52:09;;;;;;;8.17;6.70;;;4.90;99.90;;;;;;4959215;28;20877;-52
2024/03/06 00:54:36;;;;;;;12.07;7.07;;;5.00;99.90;;;;;;4964674;28;20203;-53
2024/03/06 00:57:02;;;;;;;13.97;8.40;;;5.00;99.90;;;;;;4964187;28;20260;-53
2024/03/06 00:59:31;;;;;;;9.73;6.13;;;4.90;99.90;;;;;;4966071;28;20198;-53
2024/03/06 01:01:57;;;;;;;9.67;6.77;;;4.90;99.90;;;;;;4924925;28;20304;-52
2024/03/06 01:04:24;;;;;;;12.77;7.20;;;4.90;99.90;;;;;;4966015;28;20635;-53
2024/03/06 01:06:51;;;;;;;9.50;6.70;;;4.90;99.90;;;;;;4949432;28;20923;-53
2024/03/06 01:09:18;;;;;;;11.40;6.10;;;4.90;99.90;;;;;;4966390;28;20194;-51
2024/03/06 01:11:46;;;;;;;11.63;6.77;;;4.80;99.90;;;;;;4962715;28;20222;-53
2024/03/06 01:14:13;;;;;;;9.97;6.50;;;4.80;99.90;;;;;;4965620;28;20222;-51
2024/03/06 01:16:41;;;;;;;9.97;6.13;;;4.80;99.90;;;;;;4936765;28;20229;-54
2024/03/06 01:19:08;;;;;;;8.83;5.60;;;4.80;99.90;;;;;;4948668;28;20221;-51
2024/03/06 01:21:35;;;;;;;8.93;5.80;;;4.80;99.90;;;;;;4957713;28;20301;-53
2024/03/06 01:24:03;;;;;;;6.67;5.97;;;4.80;99.90;;;;;;4958577;28;20225;-55
2024/03/06 01:26:30;;;;;;;8.67;6.00;;;4.80;99.90;;;;;;4965106;28;20202;-54
2024/03/06 01:28:57;;;;;;;7.83;5.43;;;4.70;99.90;;;;;;4962157;28;20186;-54
2024/03/06 01:31:23;;;;;;;10.07;5.63;;;4.70;99.90;;;;;;4965752;28;20929;-50
2024/03/06 01:33:51;;;;;;;9.80;5.73;;;4.70;99.90;;;;;;4922125;28;20300;-53
2024/03/06 01:36:18;;;;;;;8.03;5.73;;;4.70;99.90;;;;;;4958697;28;20264;-49
2024/03/06 01:38:46;;;;;;;5.60;4.83;;;4.70;99.90;;;;;;4957029;28;20665;-53
2024/03/06 01:41:13;;;;;;;10.30;5.30;;;4.70;99.90;;;;;;4965207;28;20243;-53
2024/03/06 01:43:40;;;;;;;6.93;5.10;;;4.70;99.90;;;;;;4962973;28;20276;-50
2024/03/06 01:46:06;;;;;;;10.10;5.07;;;4.70;99.90;;;;;;4963721;28;20305;-50
2024/03/06 01:48:35;;;;;;;7.77;5.57;;;4.70;99.90;;;;;;4947656;28;20202;-52
2024/03/06 01:51:04;;;;;;;8.83;5.83;;;4.70;99.90;;;;;;4947042;28;20882;-51
2024/03/06 01:53:33;;;;;;;5.43;4.80;;;4.70;99.90;;;;;;4952545;28;20636;-51
2024/03/06 01:56:03;;;;;;;8.23;4.73;;;4.70;99.90;;;;;;4962832;28;20209;-53
2024/03/06 01:58:31;;;;;;;8.23;5.03;;;4.60;99.90;;;;;;4964691;28;20201;-53
2024/03/06 02:00:58;;;;;;;9.63;5.87;;;4.60;99.90;;;;;;4962071;28;20949;-51
2024/03/06 02:03:26;;;;;;;7.70;5.20;;;4.60;99.90;;;;;;4957115;28;20222;-51
2024/03/06 02:05:54;;;;;;;8.43;5.50;;;4.60;99.90;;;;;;4931399;28;20226;-55
2024/03/06 02:08:22;;;;;;;9.87;5.30;;;4.60;99.90;;;;;;4956985;28;20576;-50
2024/03/06 02:10:49;;;;;;;7.97;4.77;;;4.60;99.90;;;;;;4955681;28;20452;-52
2024/03/06 02:13:16;;;;;;;11.47;5.00;;;4.60;99.90;;;;;;4955390;28;20305;-53
2024/03/06 02:15:43;;;;;;;6.50;5.10;;;4.60;99.90;;;;;;4960588;28;20256;-54
2024/03/06 02:18:10;;;;;;;8.80;5.10;;;4.60;99.90;;;;;;4962925;28;20198;-53
2024/03/06 02:20:40;;;;;;;9.70;5.47;;;4.60;99.90;;;;;;4924387;28;20337;-54
2024/03/06 02:23:07;;;;;;;9.17;4.87;;;4.60;99.90;;;;;;4957183;28;20206;-49
2024/03/06 02:25:34;;;;;;;7.67;4.93;;;4.60;99.90;;;;;;4958156;28;20206;-53
2024/03/06 02:28:01;;;;;;;8.37;4.80;;;4.60;99.90;;;;;;4961217;28;20269;-54
2024/03/06 02:30:30;;;;;;;9.73;4.67;;;4.60;99.90;;;;;;4964152;28;20729;-52
2024/03/06 02:32:57;;;;;;;6.70;4.77;;;4.60;99.90;;;;;;4961102;28;20238;-54
2024/03/06 02:35:24;;;;;;;7.10;4.63;;;4.60;99.90;;;;;;4926080;28;20693;-52
2024/03/06 02:37:52;;;;;;;7.30;4.27;;;4.60;99.90;;;;;;4960789;28;20187;-51
2024/03/06 02:40:19;;;;;;;7.10;5.57;;;4.60;99.90;;;;;;4952121;28;20285;-50
2024/03/06 02:42:46;;;;;;;8.90;4.53;;;4.60;99.90;;;;;;4960831;28;20579;-53
2024/03/06 02:45:13;;;;;;;6.80;5.30;;;4.60;99.90;;;;;;4962836;28;20198;-53
2024/03/06 02:47:40;;;;;;;6.17;4.73;;;4.60;99.90;;;;;;4961640;28;20226;-53
2024/03/06 02:50:08;;;;;;;8.87;5.23;;;4.60;99.90;;;;;;4954697;28;20229;-54
2024/03/06 02:52:35;;;;;;;6.03;4.53;;;4.60;99.90;;;;;;4933158;28;20221;-53
2024/03/06 02:55:03;;;;;;;5.93;4.50;;;4.60;99.90;;;;;;4954164;28;20222;-50
2024/03/06 02:57:30;;;;;;;7.90;4.57;;;4.60;99.90;;;;;;4958191;28;20197;-51
2024/03/06 02:59:57;;;;;;;7.70;5.57;;;4.60;99.90;;;;;;4960772;28;20210;-52
2024/03/06 03:02:25;;;;;;;6.93;5.23;;;4.60;99.90;;;;;;4962908;28;20241;-52
2024/03/06 03:04:51;;;;;;;5.97;5.37;;;4.60;99.90;;;;;;4951461;28;20276;-55
2024/03/06 03:07:19;;;;;;;6.53;4.80;;;4.60;99.90;;;;;;4933941;28;20293;-53
2024/03/06 03:09:46;;;;;;;7.97;4.90;;;4.60;99.90;;;;;;4960059;28;20205;-54
2024/03/06 03:12:14;;;;;;;7.47;4.97;;;4.60;99.90;;;;;;4957354;28;20264;-53
2024/03/06 03:14:41;;;;;;;9.27;5.37;;;4.60;99.90;;;;;;4960978;28;20265;-54
2024/03/06 03:17:08;;;;;;;8.20;5.27;;;4.60;99.90;;;;;;4962402;28;20210;-54
2024/03/06 03:19:34;;;;;;;5.50;4.60;;;4.60;99.90;;;;;;4962395;28;20201;-50
2024/03/06 03:22:04;;;;;;;6.10;4.37;;;4.60;99.90;;;;;;4923220;28;20245;-53
2024/03/06 03:24:31;;;;;;;7.63;4.60;;;4.60;99.90;;;;;;4962580;28;20662;-50
2024/03/06 03:26:57;;;;;;;7.40;4.70;;;4.60;99.90;;;;;;4953885;28;20198;-52
2024/03/06 03:29:25;;;;;;;5.30;4.30;;;4.60;99.90;;;;;;4963435;28;20194;-50
2024/03/06 03:31:53;;;;;;;7.90;5.13;;;4.60;99.90;;;;;;4958528;28;20272;-49
2024/03/06 03:34:20;;;;;;;7.47;5.43;;;4.60;99.90;;;;;;4962982;28;20226;-52
2024/03/06 03:36:48;;;;;;;7.23;4.50;;;4.60;99.90;;;;;;4951919;28;20198;-52
2024/03/06 03:39:16;;;;;;;6.27;4.70;;;4.60;99.90;;;;;;4932961;28;20206;-51
2024/03/06 03:41:46;;;;;;;7.03;5.23;;;4.50;99.90;;;;;;4952805;28;20222;-54
2024/03/06 03:44:13;;;;;;;5.23;4.73;;;4.50;99.90;;;;;;4962686;28;20581;-50
2024/03/06 03:46:42;;;;;;;9.03;5.07;;;4.50;99.90;;;;;;4961227;28;20274;-53
2024/03/06 03:49:09;;;;;;;6.07;4.97;;;4.50;99.90;;;;;;4962379;28;20194;-53
2024/03/06 03:51:36;;;;;;;6.53;5.20;;;4.50;99.90;;;;;;4959093;28;20221;-52
2024/03/06 03:54:03;;;;;;;6.03;4.50;;;4.50;99.90;;;;;;4926144;28;20255;-54
2024/03/06 03:56:30;;;;;;;7.03;5.27;;;4.40;99.90;;;;;;4956866;28;20202;-53
2024/03/06 03:58:57;;;;;;;5.30;4.77;;;4.40;99.90;;;;;;4960278;28;20197;-51
2024/03/06 04:01:24;;;;;;;6.80;5.10;;;4.40;99.90;;;;;;4961357;28;20216;-51
2024/03/06 04:03:52;;;;;;;5.07;4.53;;;4.40;99.90;;;;;;4956488;28;20209;-53
2024/03/06 04:06:19;;;;;;;6.83;5.27;;;4.50;99.90;;;;;;4963075;28;20201;-51
2024/03/06 04:08:46;;;;;;;6.67;4.97;;;4.40;99.90;;;;;;4952171;28;20264;-52
2024/03/06 04:11:13;;;;;;;9.37;5.27;;;4.50;99.90;;;;;;4932940;28;20309;-51
2024/03/06 04:13:40;;;;;;;5.27;4.77;;;4.50;99.90;;;;;;4953583;28;20277;-53
2024/03/06 04:16:07;;;;;;;5.27;4.73;;;4.50;99.90;;;;;;4961799;28;20243;-53
2024/03/06 04:18:35;;;;;;;6.37;4.87;;;4.50;99.90;;;;;;4947043;28;20214;-50
2024/03/06 04:21:06;;;;;;;8.87;5.10;;;4.50;99.90;;;;;;4961641;28;20226;-51
2024/03/06 04:23:33;;;;;;;6.90;5.00;;;4.40;99.90;;;;;;4951815;28;20198;-57
2024/03/06 04:26:00;;;;;;;8.10;4.97;;;4.40;99.90;;;;;;4927079;28;20653;-52
2024/03/06 04:28:26;;;;;;;7.97;5.00;;;4.40;99.90;;;;;;4951769;28;20284;-53
2024/03/06 04:30:53;;;;;;;8.77;5.53;;;4.40;99.90;;;;;;4963112;28;20226;-54
2024/03/06 04:33:20;;;;;;;10.23;5.97;;;4.40;99.90;;;;;;4958982;28;20210;-52
2024/03/06 04:35:47;;;;;;;7.00;4.77;;;4.40;99.90;;;;;;4962744;28;20210;-55
2024/03/06 04:38:15;;;;;;;7.57;5.17;;;4.40;99.90;;;;;;4951992;28;20206;-52
2024/03/06 04:40:43;;;;;;;6.53;5.03;;;4.40;99.90;;;;;;4962591;28;20724;-53
2024/03/06 04:43:10;;;;;;;8.33;5.10;;;4.40;99.90;;;;;;4929588;28;20210;-54
2024/03/06 04:45:37;;;;;;;5.63;4.97;;;4.40;99.90;;;;;;4957674;28;20210;-53
2024/03/06 04:48:04;;;;;;;6.97;4.90;;;4.40;99.90;;;;;;4962069;28;20245;-53
2024/03/06 04:50:30;;;;;;;6.20;5.10;;;4.30;99.90;;;;;;4961109;28;20206;-54
2024/03/06 04:52:57;;;;;;;5.50;4.67;;;4.30;99.90;;;;;;4958483;28;20628;-53
2024/03/06 04:55:26;;;;;;;4.67;4.27;;;4.30;99.90;;;;;;4961821;28;20213;-54
2024/03/06 04:57:54;;;;;;;7.93;5.20;;;4.20;99.90;;;;;;4937450;28;20198;-57
2024/03/06 05:00:21;;;;;;;9.43;5.10;;;4.20;99.90;;;;;;4947945;28;20230;-51
2024/03/06 05:02:49;;;;;;;6.37;4.53;;;4.20;99.90;;;;;;4956317;28;20206;-55
2024/03/06 05:05:16;;;;;;;5.67;4.53;;;4.10;99.90;;;;;;4962369;28;20194;-54
2024/03/06 05:07:43;;;;;;;4.80;4.30;;;4.10;99.90;;;;;;4949765;28;20288;-54
2024/03/06 05:10:10;;;;;;;7.80;5.13;;;4.10;99.90;;;;;;4953769;28;20337;-52
2024/03/06 05:12:38;;;;;;;7.97;4.83;;;4.00;99.90;;;;;;4937360;28;20214;-51
2024/03/06 05:15:06;;;;;;;5.13;4.63;;;3.90;99.90;;;;;;4955690;28;20656;-54
2024/03/06 05:17:33;;;;;;;5.87;4.73;;;3.90;99.90;;;;;;4965908;28;20286;-51
2024/03/06 05:20:00;;;;;;;5.73;5.10;;;3.80;99.90;;;;;;4962717;28;20343;-52
2024/03/06 05:22:27;;;;;;;7.90;5.13;;;3.70;99.90;;;;;;4956778;28;20209;-51
2024/03/06 05:24:54;;;;;;;5.93;5.17;;;3.70;99.90;;;;;;4956715;28;20715;-54
2024/03/06 05:27:21;;;;;;;5.27;4.67;;;3.60;99.90;;;;;;4934695;28;20225;-54
2024/03/06 05:29:50;;;;;;;7.60;5.07;;;3.60;99.90;;;;;;4966401;28;20202;-53
2024/03/06 05:32:16;;;;;;;8.57;5.03;;;3.60;99.90;;;;;;4951915;28;20201;-54
2024/03/06 05:34:44;;;;;;;5.63;4.40;;;3.50;99.90;;;;;;4964781;28;20222;-53
2024/03/06 05:37:11;;;;;;;8.27;5.17;;;3.50;99.90;;;;;;4954589;28;20194;-53
2024/03/06 05:39:38;;;;;;;5.87;4.83;;;3.50;99.90;;;;;;4956686;28;20206;-50
2024/03/06 05:42:06;;;;;;;6.93;4.80;;;3.40;99.90;;;;;;4954156;28;20674;-54
2024/03/06 05:44:34;;;;;;;5.67;5.17;;;3.40;99.90;;;;;;4935141;28;20213;-51
2024/03/06 05:47:03;;;;;;;7.50;5.40;;;3.40;99.90;;;;;;4960406;28;20252;-55
2024/03/06 05:49:30;;;;;;;8.30;5.10;;;3.40;99.90;;;;;;4968339;28;20544;-54
2024/03/06 05:51:57;;;;;;;7.03;5.17;;;3.30;99.90;;;;;;4963481;28;20218;-54
2024/03/06 05:54:24;;;;;;;8.20;5.00;;;3.30;99.90;;;;;;4952177;28;20895;-54
2024/03/06 05:56:53;;;;;;;7.90;5.20;;;3.30;99.90;;;;;;4954188;28;20206;-54
2024/03/06 05:59:20;;;;;;;8.33;5.73;;;3.20;99.90;;;;;;4933565;28;20213;-54
2024/03/06 06:01:47;;;;;;;5.83;5.20;;;3.20;99.90;;;;;;4966427;28;20226;-55
2024/03/06 06:04:15;;;;;;;6.60;4.70;;;3.20;99.90;;;;;;4956076;28;20197;-54
2024/03/06 06:06:42;;;;;;;6.30;5.00;;;3.20;99.90;;;;;;4968589;28;20330;-54
2024/03/06 06:09:12;;;;;;;9.50;5.47;;;3.20;99.90;;;;;;4945191;28;21892;-53
2024/03/06 06:11:39;;;;;;;6.80;5.80;;;3.20;99.90;;;;;;4957293;28;20226;-55
2024/03/06 06:14:06;;;;;;;4.90;4.40;;;3.20;99.90;;;;;;4956954;28;20834;-52
2024/03/06 06:16:37;;;;;;;5.87;5.30;;;3.20;99.90;;;;;;4937145;28;20261;-55
2024/03/06 06:19:03;;;;;;;7.47;5.20;;;3.20;99.90;;;;;;4954887;28;20221;-53
2024/03/06 06:21:32;;;;;;;12.03;6.07;;;3.10;99.90;;;;;;4958442;28;20213;-54
2024/03/06 06:23:59;;;;;;;9.37;5.77;;;3.10;99.90;;;;;;4955080;28;20194;-52
2024/03/06 06:26:26;;;;;;;7.77;5.07;;;3.10;99.90;;;;;;4955598;28;20296;-54
2024/03/06 06:28:53;;;;;;;5.47;4.93;;;3.10;99.90;;;;;;4957955;28;20270;-52
2024/03/06 06:31:20;;;;;;;9.10;5.70;;;3.10;99.90;;;;;;4937523;28;20619;-50
2024/03/06 06:33:47;;;;;;;6.80;5.07;;;3.10;99.90;;;;;;4946413;28;20269;-53
2024/03/06 06:36:14;;;;;;;9.53;5.20;;;3.10;99.90;;;;;;4962467;28;20218;-52
2024/03/06 06:38:42;;;;;;;7.07;5.40;;;3.10;99.90;;;;;;4952225;28;20202;-54
2024/03/06 06:41:09;;;;;;;5.80;5.20;;;3.00;99.90;;;;;;4955773;28;20280;-53
2024/03/06 06:43:36;;;;;;;7.97;5.70;;;3.00;99.90;;;;;;4953097;28;20329;-52
2024/03/06 06:46:04;;;;;;;9.90;5.60;;;3.00;99.90;;;;;;4964163;28;20194;-55
2024/03/06 06:48:33;;;;;;;7.07;5.63;;;3.10;99.90;;;;;;4930288;28;20206;-53
2024/03/06 06:51:01;;;;;;;10.80;6.37;;;3.00;99.90;;;;;;4950942;28;20218;-51
2024/03/06 06:53:28;;;;;;;8.80;5.77;;;3.10;99.90;;;;;;4934933;28;20341;-50
2024/03/06 06:55:56;;;;;;;6.60;5.17;;;3.00;99.90;;;;;;4952399;28;20258;-54
2024/03/06 06:58:23;;;;;;;9.33;5.50;;;3.10;99.90;;;;;;4952298;28;20206;-55
2024/03/06 07:00:50;;;;;;;6.13;5.20;;;3.00;99.90;;;;;;4954909;28;20676;-53
2024/03/06 07:03:17;;;;;;;10.93;5.43;;;3.00;99.90;;;;;;4919404;28;20206;-54
2024/03/06 07:05:44;;;;;;;8.57;5.93;;;3.00;99.90;;;;;;4952722;28;20300;-51
2024/03/06 07:08:11;;;;;;;14.67;6.13;;;3.10;99.90;;;;;;4955100;28;20210;-55
2024/03/06 07:10:38;;;;;;;6.43;5.27;;;3.10;99.90;;;;;;4952581;28;20838;-54
2024/03/06 07:13:06;;;;;;;11.60;6.00;;;3.20;99.90;;;;;;4963565;28;20225;-50
2024/03/06 07:15:33;;;;;;;12.33;5.83;;;3.20;99.90;;;;;;4932948;28;20230;-50
2024/03/06 07:18:00;;;;;;;9.40;5.73;;;3.20;99.90;;;;;;4932959;28;20218;-47
2024/03/06 07:20:27;;;;;;;8.30;5.73;;;3.30;99.90;;;;;;4943078;28;20248;-53
2024/03/06 07:22:54;;;;;;;9.17;5.87;;;3.30;99.90;;;;;;4941553;28;20206;-50
2024/03/06 07:25:22;;;;;;;8.33;6.30;;;3.40;99.90;;;;;;4931670;28;20206;-50
2024/03/06 07:27:49;;;;;;;6.93;6.10;;;3.40;99.90;;;;;;4954797;28;20266;-48
2024/03/06 07:30:18;;;;;;;8.87;5.83;;;3.40;99.90;;;;;;4943889;28;20871;-47
2024/03/06 07:32:45;;;;;;;8.07;6.37;;;3.40;99.90;;;;;;4957873;28;20209;-45
2024/03/06 07:35:12;;;;;;;8.97;5.97;;;3.50;99.90;;;;;;4930927;28;20329;-50
2024/03/06 07:37:40;;;;;;;9.10;6.53;;;3.60;99.90;;;;;;4955211;28;20214;-47
2024/03/06 07:40:09;;;;;;;7.57;6.17;;;3.60;99.90;;;;;;4941104;28;21037;-46
2024/03/06 07:42:37;;;;;;;8.60;5.80;;;3.80;99.90;;;;;;4955107;28;20264;-47
2024/03/06 07:45:07;;;;;;;6.57;5.63;;;3.80;99.90;;;;;;4950955;28;20260;-45
2024/03/06 07:47:38;;;;;;;8.17;6.67;;;3.90;99.90;;;;;;4951189;28;20193;-45
2024/03/06 07:50:07;;;;;;;8.80;5.83;;;4.00;99.90;;;;;;4931593;28;20405;-46
2024/03/06 07:52:35;;;;;;;7.90;5.63;;;4.10;99.90;;;;;;4947583;28;20256;-48
2024/03/06 07:55:05;;;;;;;7.97;5.73;;;4.20;99.90;;;;;;4941058;28;20218;-47
2024/03/06 07:57:39;;;;;;;7.87;6.13;;;4.30;99.90;;;;;;4961574;28;20200;-51
2024/03/06 08:00:14;;;;;;;7.57;5.57;;;4.40;99.90;;;;;;4945090;28;20356;-47
2024/03/06 08:02:43;;;;;;;6.60;5.90;;;4.50;99.90;;;;;;4954800;28;20209;-46
2024/03/06 08:05:13;;;;;;;5.50;4.93;;;4.60;99.90;;;;;;4949104;28;20838;-52
2024/03/06 08:07:41;;;;;;;7.50;6.10;;;4.70;99.90;;;;;;4949327;28;20206;-51
2024/03/06 08:10:13;;;;;;;5.57;4.77;;;4.80;99.90;;;;;;4950672;28;20228;-51
2024/03/06 08:12:41;;;;;;;6.83;5.37;;;4.90;99.90;;;;;;4962921;28;20198;-47
2024/03/06 08:15:12;;;;;;;5.73;5.23;;;5.10;99.90;;;;;;4943440;28;20231;-52
2024/03/06 08:17:42;;;;;;;5.90;4.57;;;5.20;99.90;;;;;;4954100;28;20225;-50
2024/03/06 08:20:12;;;;;;;4.53;4.13;;;5.20;99.90;;;;;;4934051;28;20308;-51
2024/03/06 08:22:41;;;;;;;5.43;4.03;;;5.30;99.90;;;;;;4953335;28;20216;-52
2024/03/06 08:25:09;;;;;;;4.73;3.50;;;5.30;99.90;;;;;;4942924;28;20285;-48
2024/03/06 08:27:39;;;;;;;4.40;4.00;;;5.40;99.90;;;;;;4965953;28;20239;-48
2024/03/06 08:30:08;;;;;;;5.00;4.50;;;5.50;99.90;;;;;;4953309;28;20284;-49
2024/03/06 08:32:37;;;;;;;4.57;4.17;;;5.50;99.90;;;;;;4950220;28;20213;-50
2024/03/06 08:35:06;;;;;;;4.70;4.13;;;5.60;99.90;;;;;;4930839;28;20232;-51
2024/03/06 08:37:41;;;;;;;6.47;4.40;;;5.60;99.90;;;;;;4965203;28;20194;-51
2024/03/06 08:40:14;;;;;;;4.13;3.70;;;5.70;99.90;;;;;;4946039;28;21829;-49
2024/03/06 08:42:41;;;;;;;4.43;3.83;;;5.70;99.90;;;;;;4966163;28;20201;-56
2024/03/06 08:45:10;;;;;;;4.13;3.83;;;5.80;99.90;;;;;;4952227;28;20206;-50
2024/03/06 08:47:38;;;;;;;5.27;4.07;;;5.90;99.90;;;;;;4958742;28;20673;-53
2024/03/06 08:50:07;;;;;;;4.97;4.20;;;6.00;99.90;;;;;;4925550;28;20220;-50
2024/03/06 08:52:38;;;;;;;5.10;4.33;;;6.10;99.90;;;;;;4966049;28;20285;-50
2024/03/06 08:55:07;;;;;;;5.50;3.97;;;6.20;99.90;;;;;;4954824;28;20908;-50
2024/03/06 08:57:35;;;;;;;5.17;4.00;;;6.20;99.90;;;;;;4954939;28;20206;-50
2024/03/06 09:00:04;;;;;;;4.47;3.67;;;6.30;99.90;;;;;;4955545;28;20225;-52
2024/03/06 09:02:31;;;;;;;4.63;3.73;;;6.30;99.90;;;;;;4967165;28;20222;-49
2024/03/06 09:04:58;;;;;;;8.40;3.97;;;6.40;99.90;;;;;;4922905;28;20201;-55
2024/03/06 09:07:25;;;;;;;4.40;3.70;;;6.50;99.90;;;;;;4967377;28;20230;-50
2024/03/06 09:09:54;;;;;;;4.83;4.10;;;6.50;99.90;;;;;;4959708;28;20543;-55
2024/03/06 09:12:22;;;;;;;5.87;4.40;;;6.60;99.90;;;;;;4954956;28;20215;-52
2024/03/06 09:14:49;;;;;;;5.47;4.30;;;6.60;99.90;;;;;;4964573;28;20194;-54
2024/03/06 09:17:17;;;;;;;4.33;3.73;;;6.60;99.90;;;;;;4954345;28;20212;-51
2024/03/06 09:19:44;;;;;;;6.00;4.77;;;6.60;99.90;;;;;;4922741;28;21364;-47
2024/03/06 09:22:12;;;;;;;5.07;4.43;;;6.60;99.90;;;;;;4962369;28;20695;-51
2024/03/06 09:24:39;;;;;;;5.70;4.07;;;6.50;99.90;;;;;;4954273;28;20218;-51
2024/03/06 09:27:08;;;;;;;4.10;3.70;;;6.40;99.90;;;;;;4968452;28;20190;-48
2024/03/06 09:29:36;;;;;;;6.63;4.27;;;6.40;99.90;;;;;;4952849;28;20214;-47
2024/03/06 09:32:03;;;;;;;6.17;4.27;;;6.60;99.90;;;;;;4952952;28;20253;-50
2024/03/06 09:34:30;;;;;;;5.10;4.00;;;6.70;99.90;;;;;;4930837;28;20608;-54
2024/03/06 09:36:57;;;;;;;6.13;4.30;;;6.90;99.90;;;;;;4965048;28;20661;-47
2024/03/06 09:39:24;;;;;;;7.27;4.80;;;6.90;99.90;;;;;;4963169;28;20211;-52
2024/03/06 09:41:52;;;;;;;5.53;4.27;;;7.00;99.90;;;;;;4956418;28;20296;-47
2024/03/06 09:44:21;;;;;;;4.37;3.83;;;7.10;99.90;;;;;;4955831;28;20210;-53
2024/03/06 09:46:50;;;;;;;5.10;4.40;;;7.20;99.90;;;;;;4964006;28;20884;-48
2024/03/06 09:49:18;;;;;;;6.47;4.30;;;7.10;99.90;;;;;;4946597;28;20205;-55
2024/03/06 09:51:47;;;;;;;5.63;4.70;;;7.00;99.90;;;;;;4943597;28;20226;-48
2024/03/06 09:54:15;;;;;;;4.80;4.30;;;7.00;99.90;;;;;;4965001;28;20744;-52
2024/03/06 09:56:44;;;;;;;4.90;4.43;;;7.00;99.90;;;;;;4958987;28;20218;-53
2024/03/06 09:59:12;;;;;;;7.90;4.50;;;7.00;99.90;;;;;;4959629;28;20650;-47
2024/03/06 10:01:47;;;;;;;4.93;4.43;;;7.00;99.90;;;;;;4961639;28;20293;-49
2024/03/06 10:04:21;;;;;;;5.33;4.50;;;6.90;99.90;;;;;;4956156;28;20292;-45
2024/03/06 10:06:49;;;;;;;5.77;4.57;;;6.90;99.90;;;;;;4923955;28;20201;-49
2024/03/06 10:09:20;;;;;;;5.57;4.17;;;6.90;99.90;;;;;;4965156;28;20198;-52
2024/03/06 10:11:48;;;;;;;6.40;4.87;;;6.80;99.90;;;;;;4955237;28;20218;-51
2024/03/06 10:14:16;;;;;;;6.23;4.07;;;6.90;99.90;;;;;;4964480;28;20198;-55
2024/03/06 10:16:57;;;;;;;5.40;4.73;;;7.00;99.90;;;;;;4952927;28;20414;-50
2024/03/06 10:19:27;;;;;;;6.90;4.50;;;7.00;99.90;;;;;;4953607;28;20558;-53
2024/03/06 10:21:56;;;;;;;6.83;4.90;;;6.90;99.90;;;;;;4932158;28;20227;-51
2024/03/06 10:24:25;;;;;;;6.43;4.57;;;6.90;99.90;;;;;;4961557;28;20660;-57
2024/03/06 10:26:54;;;;;;;5.30;4.43;;;6.90;99.90;;;;;;4956101;28;20206;-51
2024/03/06 10:29:22;;;;;;;4.87;4.43;;;6.80;99.90;;;;;;4961181;28;20198;-50
2024/03/06 10:31:52;;;;;;;9.30;5.67;;;6.90;99.90;;;;;;4943893;28;20738;-53
2024/03/06 10:34:20;;;;;;;5.60;4.83;;;6.90;99.90;;;;;;4963320;28;20889;-49
2024/03/06 10:36:54;;;;;;;6.47;5.07;;;7.00;99.90;;;;;;4954049;28;20595;-53
2024/03/06 10:39:22;;;;;;;5.97;5.37;;;7.10;99.90;;;;;;4932449;28;20202;-54
2024/03/06 10:41:54;;;;;;;6.63;5.43;;;7.20;99.90;;;;;;4950942;28;20230;-50
2024/03/06 10:44:25;;;;;;;7.27;5.33;;;7.50;99.90;;;;;;4966546;28;20206;-56
2024/03/06 10:46:58;;;;;;;8.53;5.77;;;7.60;99.90;;;;;;4948684;28;20195;-51
2024/03/06 10:49:27;;;;;;;8.47;5.43;;;7.60;99.90;;;;;;4951349;28;20617;-57
2024/03/06 10:51:58;;;;;;;8.50;5.40;;;7.80;99.90;;;;;;4950051;28;20214;-52
2024/03/06 10:54:28;;;;;;;7.37;5.50;;;7.70;99.90;;;;;;4933890;28;20210;-52
2024/03/06 10:56:55;;;;;;;8.27;5.80;;;7.80;99.90;;;;;;4956178;28;20210;-51
2024/03/06 10:59:27;;;;;;;8.07;5.87;;;7.90;99.90;;;;;;4956093;28;20202;-55
2024/03/06 11:01:55;;;;;;;8.23;5.97;;;8.00;99.90;;;;;;4955478;28;20225;-50
2024/03/06 11:04:28;;;;;;;6.67;4.63;;;8.10;99.90;;;;;;4963828;28;20217;-57
2024/03/06 11:06:56;;;;;;;7.30;5.37;;;8.00;99.90;;;;;;4950906;28;20198;-47
2024/03/06 11:09:23;;;;;;;6.23;5.37;;;7.90;99.90;;;;;;4938276;28;20264;-56
2024/03/06 11:11:52;;;;;;;7.43;5.30;;;7.80;99.90;;;;;;4962426;28;20210;-51
2024/03/06 11:14:23;;;;;;;6.20;5.27;;;7.80;99.90;;;;;;4959817;28;20713;-56
2024/03/06 11:17:02;;;;;;;6.57;5.20;;;7.90;99.90;;;;;;4953045;28;20310;-54
2024/03/06 11:19:31;;;;;;;8.43;5.70;;;7.90;99.90;;;;;;4960354;28;20202;-55
2024/03/06 11:21:59;;;;;;;6.27;5.57;;;7.90;99.90;;;;;;4948409;28;22846;-49
2024/03/06 11:24:33;;;;;;;6.10;5.03;;;7.90;99.90;;;;;;4932285;28;20217;-55
2024/03/06 11:27:02;;;;;;;8.00;5.63;;;7.90;99.90;;;;;;4964504;28;20679;-54
2024/03/06 11:29:31;;;;;;;7.23;5.60;;;7.90;99.90;;;;;;4954222;28;20198;-55
2024/03/06 11:32:09;;;;;;;6.27;5.13;;;8.20;99.90;;;;;;4955366;28;20236;-54
2024/03/06 11:34:38;;;;;;;6.63;5.23;;;8.30;99.90;;;;;;4960628;28;20272;-57
2024/03/06 11:37:09;;;;;;;5.93;5.10;;;8.40;99.90;;;;;;4956270;28;20288;-53
2024/03/06 11:39:37;;;;;;;6.20;4.60;;;8.30;99.90;;;;;;4932792;28;20676;-52
2024/03/06 11:42:08;;;;;;;5.93;4.53;;;8.50;99.90;;;;;;4959382;28;20201;-49
2024/03/06 11:44:36;;;;;;;5.60;4.60;;;8.70;99.90;;;;;;4953534;28;20206;-55
2024/03/06 11:47:04;;;;;;;4.93;4.43;;;8.80;99.90;;;;;;4963792;28;20202;-49
2024/03/06 11:49:33;;;;;;;5.47;4.53;;;8.70;99.90;;;;;;4952034;28;20730;-55
2024/03/06 11:52:04;;;;;;;5.10;4.60;;;8.60;99.90;;;;;;4955531;28;20228;-49
2024/03/06 11:54:33;;;;;;;5.10;4.60;;;8.40;99.90;;;;;;4931443;28;20210;-55
2024/03/06 11:57:02;;;;;;;5.43;4.77;;;8.30;99.90;;;;;;4964536;28;20247;-50
2024/03/06 11:59:31;;;;;;;4.90;4.27;;;8.20;99.90;;;;;;4957135;28;20204;-53
2024/03/06 12:02:02;;;;;;;5.20;4.70;;;8.10;99.90;;;;;;4963335;28;20755;-50
2024/03/06 12:04:31;;;;;;;5.40;4.73;;;8.00;99.90;;;;;;4952334;28;20688;-49
2024/03/06 12:07:00;;;;;;;6.40;5.13;;;8.10;99.90;;;;;;4953109;28;20205;-51
2024/03/06 12:09:28;;;;;;;5.83;4.80;;;8.20;99.90;;;;;;4932091;28;20213;-52
2024/03/06 12:11:57;;;;;;;6.00;5.30;;;8.30;99.90;;;;;;4963913;28;20206;-50
2024/03/06 12:14:24;;;;;;;6.00;4.63;;;8.30;99.90;;;;;;4962441;28;20206;-55
2024/03/06 12:16:57;;;;;;;6.33;4.70;;;8.40;99.90;;;;;;4954814;28;20221;-48
2024/03/06 12:19:27;;;;;;;6.17;4.87;;;8.60;99.90;;;;;;4953061;28;20213;-52
2024/03/06 12:21:54;;;;;;;5.87;5.30;;;8.80;99.90;;;;;;4960918;28;20272;-51
2024/03/06 12:24:22;;;;;;;5.40;4.90;;;8.90;99.90;;;;;;4923251;28;21182;-46
2024/03/06 12:27:00;;;;;;;7.27;4.80;;;9.00;99.90;;;;;;4958689;28;20587;-54
2024/03/06 12:29:29;;;;;;;7.00;4.67;;;9.10;99.90;;;;;;4963918;28;20799;-50
2024/03/06 12:31:57;;;;;;;6.00;4.83;;;9.20;99.90;;;;;;4953387;28;20313;-58
2024/03/06 12:34:24;;;;;;;7.63;4.97;;;9.10;99.90;;;;;;4953540;28;20205;-53
2024/03/06 12:36:51;;;;;;;6.43;4.97;;;9.20;99.90;;;;;;4961488;28;20283;-53
2024/03/06 12:39:21;;;;;;;6.50;5.80;;;9.30;99.90;;;;;;4920961;28;20237;-53
2024/03/06 12:41:48;;;;;;;6.50;5.17;;;9.40;99.90;;;;;;4961171;28;20305;-53
2024/03/06 12:44:16;;;;;;;5.53;5.00;;;9.50;99.90;;;;;;4957685;28;20256;-52
2024/03/06 12:46:43;;;;;;;7.80;5.07;;;9.60;99.90;;;;;;4953840;28;20684;-53
2024/03/06 12:49:10;;;;;;;6.77;5.27;;;9.50;99.90;;;;;;4959542;28;21060;-52
2024/03/06 12:51:37;;;;;;;6.53;5.20;;;9.40;99.90;;;;;;4954274;28;20696;-51
2024/03/06 12:54:04;;;;;;;8.63;5.80;;;9.40;99.90;;;;;;4921338;28;22380;-52
2024/03/06 12:56:31;;;;;;;5.50;5.00;;;9.40;99.90;;;;;;4962336;28;20240;-53
2024/03/06 12:58:58;;;;;;;6.53;5.20;;;9.30;99.90;;;;;;4961565;28;20539;-53